createdAt,value
2023-03-12T00:01:20.641Z,6.35
2023-03-12T00:03:49.684Z,6.28
2023-03-12T00:06:18.250Z,5.72
2023-03-12T00:08:47.749Z,6.63
2023-03-12T00:11:18.095Z,7.07
2023-03-12T00:13:46.503Z,6.00
2023-03-12T00:16:16.850Z,6.32
2023-03-12T00:18:45.373Z,5.38
2023-03-12T00:21:13.450Z,5.95
2023-03-12T00:23:41.615Z,5.38
2023-03-12T00:26:11.805Z,7.88
2023-03-12T00:31:19.846Z,7.15
2023-03-12T00:33:50.327Z,4.28
2023-03-12T00:36:24.870Z,5.05
2023-03-12T00:38:53.006Z,6.05
2023-03-12T00:41:22.032Z,5.72
2023-03-12T00:43:51.127Z,6.15
2023-03-12T00:46:21.334Z,6.10
2023-03-12T00:51:20.541Z,6.97
2023-03-12T00:53:51.848Z,5.25
2023-03-12T00:56:19.863Z,5.97
2023-03-12T00:58:47.904Z,6.28
2023-03-12T01:01:16.061Z,4.60
2023-03-12T01:03:48.523Z,3.55
2023-03-12T01:06:16.636Z,5.05
2023-03-12T01:08:45.249Z,6.07
2023-03-12T01:11:14.419Z,6.60
2023-03-12T01:13:44.205Z,6.03
2023-03-12T01:16:14.549Z,5.85
2023-03-12T01:18:45.763Z,4.65
2023-03-12T01:21:15.283Z,5.75
2023-03-12T01:23:45.686Z,3.15
2023-03-12T01:26:13.778Z,5.47
2023-03-12T01:28:42.046Z,5.32
2023-03-12T01:31:10.572Z,5.03
2023-03-12T01:33:40.433Z,3.80
2023-03-12T01:36:18.710Z,5.43
2023-03-12T01:38:47.110Z,6.72
2023-03-12T01:41:15.273Z,6.40
2023-03-12T01:43:43.506Z,6.07
2023-03-12T01:46:26.414Z,5.40
2023-03-12T01:48:58.169Z,5.68
2023-03-12T01:51:31.839Z,6.72
2023-03-12T01:54:03.220Z,5.88
2023-03-12T01:56:35.936Z,5.80
2023-03-12T01:59:09.397Z,5.40
2023-03-12T02:01:42.368Z,5.43
2023-03-12T02:04:10.648Z,5.40
2023-03-12T02:06:46.674Z,6.60
2023-03-12T02:09:17.888Z,5.70
2023-03-12T02:11:45.943Z,5.40
2023-03-12T02:14:14.066Z,5.70
2023-03-12T02:16:42.411Z,4.95
2023-03-12T02:19:18.527Z,5.60
2023-03-12T02:21:54.040Z,5.15
2023-03-12T02:24:31.764Z,6.55
2023-03-12T02:27:02.467Z,6.18
2023-03-12T02:29:33.207Z,5.35
2023-03-12T02:32:04.385Z,6.53
2023-03-12T02:34:32.530Z,4.38
2023-03-12T02:37:00.545Z,5.45
2023-03-12T02:39:28.883Z,6.53
2023-03-12T02:41:58.957Z,4.35
2023-03-12T02:44:31.346Z,5.65
2023-03-12T02:47:02.720Z,5.43
2023-03-12T02:49:32.617Z,5.78
2023-03-12T02:52:01.415Z,6.82
2023-03-12T02:54:29.978Z,3.95
2023-03-12T02:56:58.342Z,5.43
2023-03-12T02:59:27.115Z,5.47
2023-03-12T03:01:58.253Z,4.95
2023-03-12T03:04:27.010Z,4.32
2023-03-12T03:06:55.156Z,5.03
2023-03-12T03:09:23.290Z,4.93
2023-03-12T03:11:51.931Z,5.43
2023-03-12T03:14:20.784Z,4.70
2023-03-12T03:16:48.826Z,5.15
2023-03-12T03:19:18.325Z,5.82
2023-03-12T03:21:48.590Z,5.20
2023-03-12T03:24:19.628Z,5.15
2023-03-12T03:26:47.721Z,5.07
2023-03-12T03:29:17.004Z,4.55
2023-03-12T03:31:45.115Z,6.00
2023-03-12T03:34:13.137Z,5.47
2023-03-12T03:36:44.169Z,5.30
2023-03-12T03:39:12.184Z,5.18
2023-03-12T03:41:40.319Z,5.07
2023-03-12T03:44:08.694Z,5.78
2023-03-12T03:46:36.870Z,5.80
2023-03-12T03:49:05.094Z,5.90
2023-03-12T03:51:33.424Z,5.72
2023-03-12T03:54:02.963Z,5.35
2023-03-12T03:56:30.959Z,6.25
2023-03-12T03:58:59.692Z,4.97
2023-03-12T04:01:27.745Z,4.78
2023-03-12T04:03:55.811Z,5.85
2023-03-12T04:06:23.856Z,5.18
2023-03-12T04:08:51.854Z,4.60
2023-03-12T04:11:23.182Z,4.57
2023-03-12T04:13:51.895Z,5.18
2023-03-12T04:16:20.413Z,6.32
2023-03-12T04:18:48.434Z,4.47
2023-03-12T04:21:18.123Z,5.70
2023-03-12T04:23:46.244Z,3.80
2023-03-12T04:26:14.247Z,6.35
2023-03-12T04:28:43.635Z,4.90
2023-03-12T04:31:13.284Z,4.68
2023-03-12T04:33:42.301Z,4.15
2023-03-12T04:36:10.876Z,5.65
2023-03-12T04:38:38.951Z,4.38
2023-03-12T04:41:09.985Z,3.92
2023-03-12T04:43:38.121Z,4.55
2023-03-12T04:46:09.439Z,5.38
2023-03-12T04:48:40.676Z,5.20
2023-03-12T04:51:08.798Z,5.22
2023-03-12T04:53:36.885Z,3.97
2023-03-12T04:56:05.259Z,4.63
2023-03-12T04:58:33.349Z,4.03
2023-03-12T05:01:01.429Z,4.38
2023-03-12T05:03:31.038Z,4.97
2023-03-12T05:05:59.249Z,4.65
2023-03-12T05:08:27.249Z,4.18
2023-03-12T05:10:55.307Z,4.65
2023-03-12T05:13:25.515Z,4.43
2023-03-12T05:18:21.893Z,4.38
2023-03-12T05:20:59.885Z,5.70
2023-03-12T05:23:28.032Z,3.42
2023-03-12T05:25:56.760Z,3.53
2023-03-12T05:28:27.958Z,3.33
2023-03-12T05:30:57.049Z,4.88
2023-03-12T05:33:25.983Z,4.20
2023-03-12T05:35:55.541Z,4.97
2023-03-12T05:38:23.517Z,4.38
2023-03-12T05:40:55.992Z,4.60
2023-03-12T05:43:24.686Z,4.72
2023-03-12T05:45:54.675Z,3.85
2023-03-12T05:48:22.681Z,5.03
2023-03-12T05:50:50.688Z,4.50
2023-03-12T05:53:20.076Z,5.10
2023-03-12T05:55:48.121Z,4.55
2023-03-12T05:58:16.419Z,3.92
2023-03-12T06:00:45.269Z,4.72
2023-03-12T06:03:13.755Z,4.40
2023-03-12T06:05:42.373Z,5.25
2023-03-12T06:08:10.441Z,3.65
2023-03-12T06:10:40.691Z,4.15
2023-03-12T06:13:08.896Z,3.83
2023-03-12T06:15:36.990Z,4.13
2023-03-12T06:18:05.247Z,4.97
2023-03-12T06:20:33.323Z,4.10
2023-03-12T06:23:01.370Z,5.43
2023-03-12T06:25:29.506Z,4.82
2023-03-12T06:27:58.924Z,4.40
2023-03-12T06:30:27.698Z,5.40
2023-03-12T06:32:55.913Z,4.38
2023-03-12T06:35:24.018Z,5.15
2023-03-12T06:37:52.011Z,4.82
2023-03-12T06:40:20.150Z,4.88
2023-03-12T06:42:48.864Z,4.80
2023-03-12T06:45:21.255Z,5.35
2023-03-12T06:47:49.346Z,4.18
2023-03-12T06:50:17.809Z,4.47
2023-03-12T06:52:45.827Z,4.50
2023-03-12T06:55:13.954Z,4.82
2023-03-12T06:57:41.929Z,4.93
2023-03-12T07:00:11.414Z,5.20
2023-03-12T07:02:40.772Z,3.75
2023-03-12T07:05:10.282Z,5.35
2023-03-12T07:07:39.000Z,3.42
2023-03-12T07:10:07.896Z,5.03
2023-03-12T07:12:35.931Z,4.38
2023-03-12T07:15:03.957Z,7.03
2023-03-12T07:17:32.026Z,4.70
2023-03-12T07:20:01.409Z,5.35
2023-03-12T07:22:29.474Z,4.50
2023-03-12T07:24:57.496Z,3.92
2023-03-12T07:27:25.594Z,4.20
2023-03-12T07:29:53.814Z,4.38
2023-03-12T07:32:21.848Z,5.50
2023-03-12T07:34:49.864Z,5.35
2023-03-12T07:37:19.427Z,4.28
2023-03-12T07:39:51.438Z,4.80
2023-03-12T07:42:19.501Z,5.05
2023-03-12T07:44:47.552Z,4.88
2023-03-12T07:47:23.810Z,4.03
2023-03-12T07:49:52.598Z,4.40
2023-03-12T07:52:22.358Z,4.75
2023-03-12T07:54:52.728Z,4.82
2023-03-12T07:57:21.313Z,5.05
2023-03-12T07:59:49.426Z,4.43
2023-03-12T08:02:18.075Z,5.05
2023-03-12T08:04:46.451Z,4.55
2023-03-12T08:07:15.260Z,4.78
2023-03-12T08:09:44.817Z,4.53
2023-03-12T08:12:12.873Z,4.90
2023-03-12T08:14:41.944Z,4.30
2023-03-12T08:17:10.006Z,4.93
2023-03-12T08:19:38.018Z,4.28
2023-03-12T08:22:07.246Z,3.97
2023-03-12T08:24:36.261Z,5.53
2023-03-12T08:27:05.699Z,4.25
2023-03-12T08:29:33.921Z,4.47
2023-03-12T08:32:05.246Z,4.13
2023-03-12T08:34:34.151Z,5.15
2023-03-12T08:37:03.050Z,4.40
2023-03-12T08:39:31.379Z,5.15
2023-03-12T08:41:59.379Z,5.25
2023-03-12T08:44:29.060Z,4.38
2023-03-12T08:46:57.345Z,5.15
2023-03-12T08:49:25.431Z,4.93
2023-03-12T08:51:53.728Z,5.22
2023-03-12T08:54:22.344Z,4.43
2023-03-12T08:56:52.115Z,4.97
2023-03-12T08:59:20.721Z,4.32
2023-03-12T09:01:50.607Z,4.05
2023-03-12T09:04:19.144Z,4.40
2023-03-12T09:06:48.568Z,4.38
2023-03-12T09:09:17.772Z,3.85
2023-03-12T09:11:45.835Z,3.75
2023-03-12T09:15:01.446Z,4.70
2023-03-12T09:17:03.665Z,4.22
2023-03-12T09:19:31.830Z,4.72
2023-03-12T09:21:59.980Z,3.65
2023-03-12T09:24:28.332Z,4.30
2023-03-12T09:26:56.354Z,4.30
2023-03-12T09:29:24.882Z,4.97
2023-03-12T09:31:53.396Z,4.25
2023-03-12T09:34:22.788Z,4.60
2023-03-12T09:36:50.879Z,5.22
2023-03-12T09:39:20.877Z,4.20
2023-03-12T09:41:50.158Z,4.55
2023-03-12T09:44:24.863Z,4.70
2023-03-12T09:46:57.378Z,5.72
2023-03-12T09:49:33.755Z,4.15
2023-03-12T09:52:03.634Z,4.35
2023-03-12T09:54:38.124Z,4.47
2023-03-12T09:57:14.562Z,3.83
2023-03-12T09:59:42.700Z,3.85
2023-03-12T10:02:41.168Z,4.32
2023-03-12T10:05:17.701Z,3.60
2023-03-12T10:07:56.155Z,4.15
2023-03-12T10:10:39.054Z,4.63
2023-03-12T10:13:18.955Z,3.60
2023-03-12T10:16:01.032Z,4.70
2023-03-12T10:18:45.824Z,3.30
2023-03-12T10:21:25.590Z,4.35
2023-03-12T10:24:12.575Z,4.00
2023-03-12T10:26:42.020Z,3.42
2023-03-12T10:29:15.058Z,4.25
2023-03-12T10:31:53.124Z,3.58
2023-03-12T10:34:27.850Z,4.25
2023-03-12T10:37:01.960Z,4.30
2023-03-12T10:39:29.993Z,3.58
2023-03-12T10:42:01.339Z,3.97
2023-03-12T10:44:30.728Z,4.10
2023-03-12T10:47:18.228Z,3.85
2023-03-12T10:49:50.607Z,3.47
2023-03-12T10:52:22.044Z,3.30
2023-03-12T10:54:51.881Z,3.25
2023-03-12T10:57:24.905Z,3.70
2023-03-12T10:59:53.253Z,3.38
2023-03-12T11:02:34.102Z,3.25
2023-03-12T11:05:03.644Z,3.60
2023-03-12T11:07:34.413Z,3.55
2023-03-12T11:10:17.782Z,3.47
2023-03-12T11:13:03.498Z,4.18
2023-03-12T11:15:39.743Z,3.00
2023-03-12T11:18:33.457Z,3.13
2023-03-12T11:21:16.668Z,3.25
2023-03-12T11:23:55.931Z,3.60
2023-03-12T11:26:26.234Z,3.40
2023-03-12T11:29:02.427Z,3.60
2023-03-12T11:31:35.078Z,3.47
2023-03-12T11:34:08.747Z,3.38
2023-03-12T11:36:46.916Z,3.05
2023-03-12T11:39:25.803Z,3.80
2023-03-12T11:42:08.751Z,2.97
2023-03-12T11:44:51.718Z,3.47
2023-03-12T11:47:38.026Z,3.60
2023-03-12T11:50:19.093Z,2.85
2023-03-12T11:53:21.352Z,3.92
2023-03-12T11:56:01.758Z,2.50
2023-03-12T11:58:46.318Z,2.65
2023-03-12T12:01:23.539Z,2.85
2023-03-12T12:04:12.116Z,3.42
2023-03-12T12:06:54.467Z,4.43
2023-03-12T12:09:35.108Z,3.63
2023-03-12T12:12:18.229Z,2.78
2023-03-12T12:14:58.438Z,2.97
2023-03-12T12:20:14.096Z,3.20
2023-03-12T12:22:52.743Z,2.53
2023-03-12T12:25:35.584Z,3.10
2023-03-12T12:28:54.153Z,2.83
2023-03-12T12:31:32.322Z,3.00
2023-03-12T12:34:33.413Z,2.42
2023-03-12T12:37:22.039Z,2.67
2023-03-12T12:39:54.190Z,3.40
2023-03-12T12:42:27.903Z,3.22
2023-03-12T12:44:59.680Z,2.88
2023-03-12T12:47:38.645Z,2.17
2023-03-12T12:50:08.548Z,2.72
2023-03-12T12:52:36.766Z,3.00
2023-03-12T12:55:11.987Z,2.78
2023-03-12T12:57:43.709Z,2.92
2023-03-12T13:00:24.393Z,2.53
2023-03-12T13:02:57.038Z,2.70
2023-03-12T13:05:29.436Z,2.63
2023-03-12T13:07:58.593Z,2.60
2023-03-12T13:10:48.718Z,2.83
2023-03-12T13:13:27.430Z,2.97
2023-03-12T13:18:57.856Z,2.83
2023-03-12T13:21:35.513Z,2.95
2023-03-12T13:24:23.478Z,6.72
2023-03-12T13:26:58.936Z,6.25
2023-03-12T13:29:39.875Z,5.28
2023-03-12T13:32:31.452Z,5.82
2023-03-12T13:35:08.893Z,3.97
2023-03-12T13:38:04.953Z,3.35
2023-03-12T13:41:00.874Z,2.35
2023-03-12T13:43:48.936Z,2.50
2023-03-12T13:46:46.009Z,5.32
2023-03-12T13:49:23.076Z,4.25
2023-03-12T13:52:12.320Z,3.22
2023-03-12T13:54:44.524Z,2.45
2023-03-12T13:57:22.285Z,2.75
2023-03-12T13:59:52.380Z,3.85
2023-03-12T14:02:26.682Z,10.73
2023-03-12T14:04:58.104Z,9.82
2023-03-12T14:07:57.641Z,3.97
2023-03-12T14:10:54.281Z,3.15
2023-03-12T14:13:37.320Z,2.22
2023-03-12T14:16:10.709Z,1.73
2023-03-12T14:18:41.010Z,1.33
2023-03-12T14:21:14.488Z,1.77
2023-03-12T14:23:49.450Z,1.15
2023-03-12T14:26:22.143Z,1.00
2023-03-12T14:28:57.222Z,1.00
2023-03-12T14:31:26.584Z,1.65
2023-03-12T14:33:59.516Z,1.98
2023-03-12T14:36:31.859Z,2.13
2023-03-12T14:39:12.864Z,1.05
2023-03-12T14:41:46.405Z,0.95
2023-03-12T14:44:23.519Z,1.20
2023-03-12T14:46:58.437Z,1.33
2023-03-12T14:49:26.692Z,1.33
2023-03-12T14:51:55.469Z,0.63
2023-03-12T14:54:26.698Z,1.25
2023-03-12T14:56:55.038Z,2.88
2023-03-12T14:59:29.622Z,3.10
2023-03-12T15:02:02.343Z,4.45
2023-03-12T15:04:31.891Z,3.50
2023-03-12T15:07:04.506Z,3.10
2023-03-12T15:09:36.935Z,4.32
2023-03-12T15:12:07.940Z,4.38
2023-03-12T15:14:42.138Z,3.85
2023-03-12T15:17:19.662Z,2.72
2023-03-12T15:19:49.042Z,1.80
2023-03-12T15:22:19.560Z,2.03
2023-03-12T15:24:49.360Z,2.53
2023-03-12T15:27:31.229Z,1.98
2023-03-12T15:30:01.360Z,1.52
2023-03-12T15:35:00.736Z,2.33
2023-03-12T15:37:35.698Z,2.80
2023-03-12T15:40:10.963Z,2.33
2023-03-12T15:42:42.354Z,2.00
2023-03-12T15:45:21.361Z,3.42
2023-03-12T15:47:50.789Z,5.55
2023-03-12T15:50:22.851Z,5.65
2023-03-12T15:53:06.023Z,3.05
2023-03-12T15:55:36.571Z,7.95
2023-03-12T15:58:26.316Z,5.15
2023-03-12T16:00:54.647Z,4.57
2023-03-12T16:03:23.806Z,1.23
2023-03-12T16:05:52.107Z,1.10
2023-03-12T16:08:25.910Z,3.70
2023-03-12T16:10:55.590Z,5.97
2023-03-12T16:13:31.207Z,10.00
2023-03-12T16:16:00.240Z,4.60
2023-03-12T16:18:28.348Z,6.15
2023-03-12T16:20:56.351Z,2.17
2023-03-12T16:23:24.523Z,2.20
2023-03-12T16:25:56.588Z,1.95
2023-03-12T16:28:25.515Z,3.30
2023-03-12T16:30:54.396Z,3.55
2023-03-12T16:33:24.747Z,2.47
2023-03-12T16:35:53.171Z,2.15
2023-03-12T16:38:21.466Z,1.60
2023-03-12T16:40:52.718Z,2.05
2023-03-12T16:43:24.287Z,2.17
2023-03-12T16:45:54.204Z,0.95
2023-03-12T16:48:24.669Z,1.00
2023-03-12T16:50:54.682Z,0.70
2023-03-12T16:53:23.308Z,0.93
2023-03-12T16:55:53.427Z,1.02
2023-03-12T17:03:27.684Z,1.42
2023-03-12T17:05:56.417Z,2.28
2023-03-12T17:08:24.660Z,1.92
2023-03-12T17:10:52.834Z,1.88
2023-03-12T17:13:24.389Z,1.40
2023-03-12T17:15:52.994Z,1.73
2023-03-12T17:18:21.819Z,2.15
2023-03-12T17:20:51.921Z,7.82
2023-03-12T17:25:47.939Z,2.10
2023-03-12T17:28:16.407Z,1.67
2023-03-12T17:30:47.488Z,1.48
2023-03-12T17:33:17.580Z,1.70
2023-03-12T17:35:45.963Z,2.20
2023-03-12T17:38:14.443Z,2.03
2023-03-12T17:40:43.490Z,1.65
2023-03-12T17:43:11.904Z,2.05
2023-03-12T17:45:40.007Z,2.22
2023-03-12T17:48:09.506Z,2.28
2023-03-12T17:50:38.415Z,2.33
2023-03-12T17:53:06.440Z,2.40
2023-03-12T17:55:34.437Z,3.17
2023-03-12T17:58:03.359Z,2.70
2023-03-12T18:00:31.494Z,3.00
2023-03-12T18:02:59.526Z,3.58
2023-03-12T18:05:29.203Z,3.13
2023-03-12T18:07:57.319Z,3.50
2023-03-12T18:10:25.445Z,3.15
2023-03-12T18:12:53.473Z,3.20
2023-03-12T18:15:21.646Z,2.50
2023-03-12T18:17:52.511Z,2.35
2023-03-12T18:20:32.478Z,2.65
2023-03-12T18:23:07.607Z,2.70
2023-03-12T18:25:35.610Z,4.03
2023-03-12T18:28:03.672Z,3.95
2023-03-12T18:30:31.733Z,3.22
2023-03-12T18:32:59.959Z,2.90
2023-03-12T18:35:29.167Z,3.70
2023-03-12T18:37:57.700Z,3.10
2023-03-12T18:40:27.662Z,2.53
2023-03-12T18:42:58.870Z,2.20
2023-03-12T18:45:28.036Z,2.67
2023-03-12T18:47:56.174Z,3.20
2023-03-12T18:50:25.886Z,3.42
2023-03-12T18:52:53.919Z,2.88
2023-03-12T18:55:21.943Z,3.05
2023-03-12T18:57:53.914Z,3.40
2023-03-12T19:00:22.144Z,3.55
2023-03-12T19:02:50.303Z,3.75
2023-03-12T19:05:18.512Z,3.25
2023-03-12T19:07:46.623Z,3.58
2023-03-12T19:10:15.250Z,4.05
2023-03-12T19:12:52.715Z,3.25
2023-03-12T19:15:24.241Z,5.55
2023-03-12T19:17:52.950Z,5.72
2023-03-12T19:20:21.900Z,3.97
2023-03-12T19:22:49.961Z,3.97
2023-03-12T19:25:18.185Z,4.13
2023-03-12T19:27:46.213Z,3.55
2023-03-12T19:30:15.044Z,4.07
2023-03-12T19:32:44.882Z,2.75
2023-03-12T19:35:14.449Z,3.42
2023-03-12T19:37:42.817Z,4.57
2023-03-12T19:40:13.382Z,4.82
2023-03-12T19:42:41.517Z,3.13
2023-03-12T19:45:10.899Z,3.65
2023-03-12T19:47:38.948Z,4.25
2023-03-12T19:50:09.838Z,4.38
2023-03-12T19:52:37.990Z,3.05
2023-03-12T19:55:06.890Z,4.90
2023-03-12T19:57:35.215Z,3.90
2023-03-12T20:00:07.342Z,4.65
2023-03-12T20:02:35.689Z,4.55
2023-03-12T20:05:04.138Z,6.38
2023-03-12T20:07:33.896Z,4.13
2023-03-12T20:10:01.968Z,3.70
2023-03-12T20:12:30.029Z,3.17
2023-03-12T20:14:58.087Z,4.18
2023-03-12T20:17:26.165Z,3.00
2023-03-12T20:19:55.983Z,3.00
2023-03-12T20:22:25.723Z,3.90
2023-03-12T20:24:55.357Z,4.18
2023-03-12T20:27:23.426Z,3.85
2023-03-12T20:29:51.568Z,4.28
2023-03-12T20:32:19.681Z,4.95
2023-03-12T20:34:47.703Z,4.85
2023-03-12T20:37:15.722Z,3.92
2023-03-12T20:39:44.140Z,4.10
2023-03-12T20:42:13.534Z,4.90
2023-03-12T20:44:41.593Z,4.53
2023-03-12T20:47:09.578Z,5.60
2023-03-12T20:49:37.601Z,5.20
2023-03-12T20:52:05.736Z,6.10
2023-03-12T20:54:34.011Z,6.65
2023-03-12T20:57:02.015Z,7.90
2023-03-12T20:59:31.389Z,5.78
2023-03-12T21:01:59.541Z,5.53
2023-03-12T21:04:27.633Z,7.10
2023-03-12T21:06:56.366Z,5.53
2023-03-12T21:09:24.375Z,14.30
2023-03-12T21:11:52.360Z,13.50
2023-03-12T21:14:20.378Z,11.10
2023-03-12T21:16:49.893Z,10.35
2023-03-12T21:19:17.954Z,8.68
2023-03-12T21:21:46.079Z,11.43
2023-03-12T21:24:14.064Z,9.02
2023-03-12T21:26:42.240Z,5.60
2023-03-12T21:29:10.656Z,4.20
2023-03-12T21:31:38.645Z,4.47
2023-03-12T21:34:09.637Z,4.80
2023-03-12T21:36:37.901Z,2.90
2023-03-12T21:39:05.908Z,1.02
2023-03-12T21:41:34.056Z,1.80
2023-03-12T21:44:03.395Z,1.60
2023-03-12T21:46:31.736Z,2.00
2023-03-12T21:49:00.700Z,0.70
2023-03-12T21:51:30.208Z,0.80
2023-03-12T21:53:59.680Z,0.85
2023-03-12T21:56:28.343Z,0.90
2023-03-12T21:58:57.325Z,0.77
2023-03-12T22:01:25.426Z,0.70
2023-03-12T22:03:53.871Z,0.60
2023-03-12T22:06:22.655Z,0.65
2023-03-12T22:08:52.425Z,0.50
2023-03-12T22:11:20.652Z,0.80
2023-03-12T22:13:48.710Z,0.95
2023-03-12T22:16:17.381Z,0.57
2023-03-12T22:18:47.861Z,0.50
2023-03-12T22:21:17.875Z,0.63
2023-03-12T22:23:48.004Z,0.70
2023-03-12T22:26:17.904Z,0.50
2023-03-12T22:28:50.728Z,0.80
2023-03-12T22:31:20.403Z,0.85
2023-03-12T22:33:48.464Z,1.20
2023-03-12T22:36:17.678Z,1.20
2023-03-12T22:38:47.718Z,2.00
2023-03-12T22:41:19.677Z,0.73
2023-03-12T22:43:48.798Z,0.68
2023-03-12T22:46:18.815Z,0.70
2023-03-12T22:51:15.861Z,0.55
2023-03-12T22:53:43.904Z,0.40
2023-03-12T22:56:13.729Z,0.70
2023-03-12T22:58:43.374Z,0.40
2023-03-12T23:01:13.213Z,0.57
2023-03-12T23:03:43.361Z,0.38
2023-03-12T23:06:12.761Z,0.20
2023-03-12T23:08:41.447Z,0.20
2023-03-12T23:11:11.465Z,0.22
2023-03-12T23:13:41.767Z,0.30
2023-03-12T23:16:13.317Z,0.43
2023-03-12T23:18:43.036Z,0.20
2023-03-12T23:21:13.139Z,0.38
2023-03-12T23:23:42.274Z,0.25
2023-03-12T23:26:13.923Z,0.10
2023-03-12T23:28:42.176Z,0.20
2023-03-12T23:31:12.244Z,0.20
2023-03-12T23:33:40.498Z,0.17
2023-03-12T23:36:10.613Z,0.20
2023-03-12T23:41:08.555Z,0.20
2023-03-12T23:43:36.604Z,0.20
2023-03-12T23:46:06.638Z,0.20
2023-03-12T23:48:37.974Z,0.80
2023-03-12T23:51:07.759Z,0.40
2023-03-12T23:53:37.037Z,0.93
2023-03-12T23:56:07.396Z,0.20
2023-03-12T23:58:36.012Z,0.40
